createdAt,value
2023-01-03T00:01:53.270Z,98189.81
2023-01-03T00:04:20.634Z,98193.69
2023-01-03T00:06:50.151Z,98200.44
2023-01-03T00:09:19.567Z,98199.56
2023-01-03T00:12:06.534Z,98194.66
2023-01-03T00:14:36.999Z,98194.34
2023-01-03T00:17:05.378Z,98196.91
2023-01-03T00:19:35.179Z,98193.28
2023-01-03T00:22:02.463Z,98191.13
2023-01-03T00:24:29.185Z,98177.78
2023-01-03T00:26:56.029Z,98186.59
2023-01-03T00:29:22.875Z,98177.47
2023-01-03T00:31:49.850Z,98178.03
2023-01-03T00:34:17.164Z,98184.09
2023-01-03T00:36:43.903Z,98175.69
2023-01-03T00:39:11.972Z,98178.28
2023-01-03T00:41:40.307Z,98171.91
2023-01-03T00:44:07.140Z,98175.78
2023-01-03T00:46:34.738Z,98178.34
2023-01-03T00:49:02.038Z,98163.75
2023-01-03T00:51:31.751Z,98156.66
2023-01-03T00:53:59.846Z,98157.94
2023-01-03T00:56:29.352Z,98161.09
2023-01-03T00:58:56.257Z,98169.16
2023-01-03T01:01:30.070Z,98166.25
2023-01-03T01:04:05.607Z,98173.03
2023-01-03T01:06:35.135Z,98164.03
2023-01-03T01:09:04.835Z,98164.44
2023-01-03T01:11:38.680Z,98160.25
2023-01-03T01:14:19.937Z,98173.06
2023-01-03T01:16:53.709Z,98178.41
2023-01-03T01:19:25.031Z,98182.25
2023-01-03T01:21:51.963Z,98187.56
2023-01-03T01:24:19.073Z,98188.69
2023-01-03T01:26:46.661Z,98187.09
2023-01-03T01:29:14.300Z,98184.16
2023-01-03T01:31:41.924Z,98186.75
2023-01-03T01:34:09.099Z,98194.25
2023-01-03T01:36:37.781Z,98188.56
2023-01-03T01:39:10.996Z,98183.50
2023-01-03T01:41:56.949Z,98186.78
2023-01-03T01:44:45.254Z,98194.69
2023-01-03T01:47:38.210Z,98201.84
2023-01-03T01:50:15.654Z,98209.16
2023-01-03T01:53:02.785Z,98212.47
2023-01-03T01:55:47.964Z,98214.31
2023-01-03T01:58:20.312Z,98218.91
2023-01-03T02:00:47.875Z,98222.94
2023-01-03T02:03:14.815Z,98224.94
2023-01-03T02:05:50.816Z,98226.03
2023-01-03T02:08:17.824Z,98207.44
2023-01-03T02:10:56.489Z,98214.03
2023-01-03T02:13:35.823Z,98215.31
2023-01-03T02:16:13.239Z,98217.88
2023-01-03T02:18:46.872Z,98214.09
2023-01-03T02:21:29.972Z,98211.34
2023-01-03T02:24:11.841Z,98215.19
2023-01-03T02:27:12.891Z,98207.53
2023-01-03T02:30:17.130Z,98215.03
2023-01-03T02:32:47.831Z,98208.63
2023-01-03T02:35:21.568Z,98206.47
2023-01-03T02:38:06.705Z,98213.22
2023-01-03T02:40:47.527Z,98224.03
2023-01-03T02:43:32.455Z,98214.16
2023-01-03T02:46:03.989Z,98210.72
2023-01-03T02:48:34.694Z,98211.28
2023-01-03T02:51:02.175Z,98203.56
2023-01-03T02:53:38.689Z,98206.31
2023-01-03T02:56:08.429Z,98193.78
2023-01-03T02:58:37.747Z,98201.78
2023-01-03T03:01:06.558Z,98199.63
2023-01-03T03:03:37.764Z,98193.97
2023-01-03T03:06:07.873Z,98204.22
2023-01-03T03:08:34.708Z,98196.00
2023-01-03T03:11:20.328Z,98191.06
2023-01-03T03:13:50.783Z,98200.41
2023-01-03T03:16:42.182Z,98196.94
2023-01-03T03:19:51.707Z,98208.41
2023-01-03T03:22:55.478Z,98204.06
2023-01-03T03:25:29.531Z,98211.38
2023-01-03T03:28:19.990Z,98196.78
2023-01-03T03:30:59.317Z,98200.81
2023-01-03T03:33:32.976Z,98206.09
2023-01-03T03:36:06.751Z,98203.94
2023-01-03T03:38:43.268Z,98199.56
2023-01-03T03:41:34.924Z,98198.81
2023-01-03T03:44:28.416Z,98208.31
2023-01-03T03:47:04.147Z,98207.44
2023-01-03T03:49:40.252Z,98208.69
2023-01-03T03:52:11.265Z,98213.44
2023-01-03T03:54:39.622Z,98216.75
2023-01-03T03:57:15.184Z,98200.69
2023-01-03T03:59:46.129Z,98205.44
2023-01-03T04:02:14.484Z,98208.72
2023-01-03T04:04:45.201Z,98205.66
2023-01-03T04:07:11.802Z,98211.09
2023-01-03T04:09:38.561Z,98204.34
2023-01-03T04:12:05.471Z,98210.78
2023-01-03T04:14:32.177Z,98212.56
2023-01-03T04:16:58.965Z,98205.47
2023-01-03T04:19:25.757Z,98205.28
2023-01-03T04:21:52.608Z,98199.09
2023-01-03T04:24:20.840Z,98196.94
2023-01-03T04:26:55.328Z,98198.22
2023-01-03T04:29:23.830Z,98202.94
2023-01-03T04:31:50.585Z,98209.53
2023-01-03T04:34:17.405Z,98213.53
2023-01-03T04:36:44.165Z,98211.34
2023-01-03T04:39:11.212Z,98209.88
2023-01-03T04:41:37.900Z,98210.44
2023-01-03T04:44:04.993Z,98211.72
2023-01-03T04:46:32.899Z,98209.53
2023-01-03T04:49:00.014Z,98212.25
2023-01-03T04:51:27.112Z,98213.53
2023-01-03T04:53:54.079Z,98215.56
2023-01-03T04:56:25.295Z,98203.16
2023-01-03T04:58:52.027Z,98207.34
2023-01-03T05:01:18.851Z,98213.38
2023-01-03T05:03:45.760Z,98217.56
2023-01-03T05:06:13.038Z,98212.66
2023-01-03T05:08:40.196Z,98217.41
2023-01-03T05:11:07.290Z,98226.13
2023-01-03T05:13:34.099Z,98226.13
2023-01-03T05:16:08.717Z,98234.88
2023-01-03T05:18:35.823Z,98230.16
2023-01-03T05:21:32.180Z,98230.69
2023-01-03T05:24:17.501Z,98224.50
2023-01-03T05:26:44.413Z,98232.50
2023-01-03T05:29:12.855Z,98231.78
2023-01-03T05:31:39.758Z,98246.75
2023-01-03T05:34:06.426Z,98245.28
2023-01-03T05:36:33.289Z,98241.63
2023-01-03T05:39:00.084Z,98253.31
2023-01-03T05:41:46.201Z,98254.56
2023-01-03T05:44:13.366Z,98256.41
2023-01-03T05:46:40.028Z,98258.22
2023-01-03T05:49:06.914Z,98260.25
2023-01-03T05:51:33.728Z,98255.31
2023-01-03T05:54:00.533Z,98254.44
2023-01-03T05:56:27.683Z,98259.91
2023-01-03T05:58:54.705Z,98256.41
2023-01-03T06:01:21.529Z,98256.25
2023-01-03T06:03:48.540Z,98252.78
2023-01-03T06:06:16.349Z,98253.34
2023-01-03T06:08:43.228Z,98261.53
2023-01-03T06:11:12.344Z,98266.28
2023-01-03T06:13:40.318Z,98264.06
2023-01-03T06:16:28.665Z,98266.81
2023-01-03T06:18:56.130Z,98258.59
2023-01-03T06:21:22.911Z,98261.16
2023-01-03T06:23:49.694Z,98262.25
2023-01-03T06:26:19.897Z,98261.53
2023-01-03T06:28:46.760Z,98260.81
2023-01-03T06:31:13.853Z,98274.28
2023-01-03T06:33:41.530Z,98272.84
2023-01-03T06:36:10.962Z,98272.63
2023-01-03T06:38:38.441Z,98266.44
2023-01-03T06:41:05.544Z,98269.19
2023-01-03T06:43:32.466Z,98269.19
2023-01-03T06:46:18.875Z,98264.81
2023-01-03T06:49:05.167Z,98259.88
2023-01-03T06:51:51.024Z,98263.00
2023-01-03T06:54:29.429Z,98264.63
2023-01-03T06:56:56.601Z,98264.63
2023-01-03T06:59:23.980Z,98273.88
2023-01-03T07:01:52.004Z,98270.91
2023-01-03T07:04:25.156Z,98280.22
2023-01-03T07:06:56.666Z,98267.00
2023-01-03T07:09:24.437Z,98268.66
2023-01-03T07:11:51.377Z,98270.38
2023-01-03T07:14:19.222Z,98270.59
2023-01-03T07:16:47.417Z,98275.94
2023-01-03T07:19:18.979Z,98287.44
2023-01-03T07:21:46.151Z,98293.63
2023-01-03T07:24:15.510Z,98292.25
2023-01-03T07:26:42.359Z,98288.94
2023-01-03T07:29:10.304Z,98292.09
2023-01-03T07:31:41.189Z,98288.25
2023-01-03T07:34:09.245Z,98292.19
2023-01-03T07:36:36.784Z,98285.84
2023-01-03T07:39:03.899Z,98293.25
2023-01-03T07:41:49.280Z,98299.22
2023-01-03T07:44:16.146Z,98306.25
2023-01-03T07:46:42.837Z,98313.03
2023-01-03T07:49:11.913Z,98318.31
2023-01-03T07:51:39.489Z,98317.66
2023-01-03T07:54:07.666Z,98320.47
2023-01-03T07:56:34.730Z,98319.59
2023-01-03T07:59:02.351Z,98321.50
2023-01-03T08:01:30.897Z,98321.19
2023-01-03T08:03:57.904Z,98331.66
2023-01-03T08:06:25.065Z,98332.28
2023-01-03T08:09:14.826Z,98331.69
2023-01-03T08:12:06.389Z,98332.09
2023-01-03T08:14:41.240Z,98328.63
2023-01-03T08:17:11.323Z,98330.84
2023-01-03T08:19:45.875Z,98332.84
2023-01-03T08:22:19.253Z,98325.19
2023-01-03T08:24:46.024Z,98333.69
2023-01-03T08:27:12.815Z,98333.88
2023-01-03T08:29:39.797Z,98341.00
2023-01-03T08:32:06.695Z,98345.38
2023-01-03T08:34:36.568Z,98350.81
2023-01-03T08:37:07.884Z,98351.88
2023-01-03T08:39:44.609Z,98356.56
2023-01-03T08:42:13.228Z,98370.25
2023-01-03T08:44:40.438Z,98367.88
2023-01-03T08:47:08.773Z,98362.63
2023-01-03T08:49:35.671Z,98363.06
2023-01-03T08:52:02.622Z,98362.00
2023-01-03T08:54:29.357Z,98364.22
2023-01-03T08:56:56.316Z,98362.97
2023-01-03T08:59:23.081Z,98365.47
2023-01-03T09:01:50.118Z,98369.41
2023-01-03T09:04:17.001Z,98363.47
2023-01-03T09:06:43.741Z,98375.81
2023-01-03T09:09:10.495Z,98373.50
2023-01-03T09:11:37.239Z,98376.41
2023-01-03T09:14:03.926Z,98376.34
2023-01-03T09:16:30.811Z,98379.38
2023-01-03T09:18:59.162Z,98382.72
2023-01-03T09:21:25.891Z,98384.09
2023-01-03T09:23:52.557Z,98387.44
2023-01-03T09:26:19.467Z,98392.03
2023-01-03T09:28:46.178Z,98396.41
2023-01-03T09:31:13.119Z,98400.28
2023-01-03T09:33:40.036Z,98400.75
2023-01-03T09:36:07.088Z,98392.03
2023-01-03T09:38:34.016Z,98393.72
2023-01-03T09:41:11.484Z,98399.91
2023-01-03T09:43:44.257Z,98404.09
2023-01-03T09:46:18.094Z,98398.34
2023-01-03T09:48:45.388Z,98399.16
2023-01-03T09:51:53.534Z,98400.19
2023-01-03T09:54:52.669Z,98393.38
2023-01-03T09:57:45.611Z,98390.31
2023-01-03T10:00:41.271Z,98388.00
2023-01-03T10:03:26.964Z,98386.97
2023-01-03T10:06:22.274Z,98394.47
2023-01-03T10:09:07.180Z,98388.72
2023-01-03T10:11:52.623Z,98394.16
2023-01-03T10:14:50.092Z,98400.47
2023-01-03T10:17:50.004Z,98394.28
2023-01-03T10:20:35.060Z,98396.56
2023-01-03T10:23:04.024Z,98401.59
2023-01-03T10:25:30.856Z,98398.66
2023-01-03T10:28:28.387Z,98398.47
2023-01-03T10:31:32.122Z,98393.63
2023-01-03T10:33:58.971Z,98396.34
2023-01-03T10:36:25.617Z,98402.22
2023-01-03T10:39:06.874Z,98399.25
2023-01-03T10:41:42.848Z,98403.91
2023-01-03T10:44:32.029Z,98398.41
2023-01-03T10:47:09.605Z,98387.97
2023-01-03T10:49:36.489Z,98389.09
2023-01-03T10:52:16.533Z,98386.03
2023-01-03T10:54:43.841Z,98383.38
2023-01-03T10:57:48.875Z,98381.78
2023-01-03T11:00:40.065Z,98390.88
2023-01-03T11:03:17.139Z,98374.22
2023-01-03T11:05:56.739Z,98380.97
2023-01-03T11:08:46.877Z,98376.81
2023-01-03T11:11:39.520Z,98381.78
2023-01-03T11:14:10.021Z,98375.66
2023-01-03T11:16:36.905Z,98374.63
2023-01-03T11:19:05.869Z,98377.63
2023-01-03T11:21:42.294Z,98371.28
2023-01-03T11:24:20.843Z,98371.66
2023-01-03T11:27:29.481Z,98370.56
2023-01-03T11:30:33.462Z,98368.81
2023-01-03T11:33:27.253Z,98358.69
2023-01-03T11:36:08.125Z,98356.94
2023-01-03T11:38:50.701Z,98357.50
2023-01-03T11:41:42.284Z,98368.13
2023-01-03T11:44:30.223Z,98365.94
2023-01-03T11:47:09.929Z,98364.50
2023-01-03T11:49:50.088Z,98361.03
2023-01-03T11:52:33.755Z,98353.00
2023-01-03T11:55:27.971Z,98355.91
2023-01-03T11:58:16.955Z,98354.00
2023-01-03T12:00:56.468Z,98354.69
2023-01-03T12:03:41.298Z,98359.06
2023-01-03T12:06:22.379Z,98358.56
2023-01-03T12:09:17.711Z,98364.25
2023-01-03T12:12:00.672Z,98371.91
2023-01-03T12:14:41.590Z,98369.75
2023-01-03T12:17:14.274Z,98371.72
2023-01-03T12:19:53.139Z,98370.63
2023-01-03T12:22:41.994Z,98363.50
2023-01-03T12:25:36.065Z,98363.66
2023-01-03T12:28:11.767Z,98359.53
2023-01-03T12:31:10.618Z,98355.84
2023-01-03T12:33:49.469Z,98344.38
2023-01-03T12:36:34.504Z,98336.53
2023-01-03T12:39:15.494Z,98332.00
2023-01-03T12:41:51.136Z,98338.94
2023-01-03T12:44:27.512Z,98335.13
2023-01-03T12:46:56.249Z,98331.47
2023-01-03T12:49:29.270Z,98319.75
2023-01-03T12:51:55.989Z,98311.34
2023-01-03T12:54:42.461Z,98323.38
2023-01-03T12:57:35.367Z,98321.91
2023-01-03T13:00:23.862Z,98314.03
2023-01-03T13:03:01.489Z,98319.91
2023-01-03T13:05:45.439Z,98314.03
2023-01-03T13:08:25.840Z,98315.50
2023-01-03T13:10:55.017Z,98314.75
2023-01-03T13:13:21.900Z,98311.28
2023-01-03T13:15:48.966Z,98324.19
2023-01-03T13:18:21.818Z,98322.53
2023-01-03T13:20:52.510Z,98332.34
2023-01-03T13:23:35.925Z,98328.06
2023-01-03T13:26:05.841Z,98327.72
2023-01-03T13:28:37.485Z,98326.25
2023-01-03T13:31:14.260Z,98326.41
2023-01-03T13:33:53.958Z,98329.88
2023-01-03T13:36:21.878Z,98328.38
2023-01-03T13:38:48.806Z,98324.69
2023-01-03T13:41:37.012Z,98321.38
2023-01-03T13:44:19.567Z,98324.94
2023-01-03T13:46:47.320Z,98327.09
2023-01-03T13:49:20.403Z,98328.19
2023-01-03T13:51:53.920Z,98326.03
2023-01-03T13:54:20.567Z,98326.19
2023-01-03T13:56:50.007Z,98324.03
2023-01-03T13:59:26.952Z,98333.84
2023-01-03T14:02:15.759Z,98324.00
2023-01-03T14:04:45.480Z,98321.25
2023-01-03T14:07:39.348Z,98323.66
2023-01-03T14:10:14.900Z,98317.13
2023-01-03T14:12:44.456Z,98312.16
2023-01-03T14:15:25.256Z,98307.63
2023-01-03T14:17:56.196Z,98308.22
2023-01-03T14:20:35.245Z,98303.38
2023-01-03T14:23:23.860Z,98314.34
2023-01-03T14:25:52.819Z,98309.06
2023-01-03T14:28:25.592Z,98307.63
2023-01-03T14:30:55.595Z,98302.69
2023-01-03T14:33:30.330Z,98305.59
2023-01-03T14:36:09.085Z,98306.34
2023-01-03T14:38:36.300Z,98313.47
2023-01-03T14:41:03.571Z,98305.06
2023-01-03T14:43:32.680Z,98301.25
2023-01-03T14:46:08.003Z,98297.44
2023-01-03T14:48:34.965Z,98303.06
2023-01-03T14:51:03.722Z,98305.25
2023-01-03T14:53:32.925Z,98309.59
2023-01-03T14:56:00.103Z,98304.47
2023-01-03T14:58:34.229Z,98311.06
2023-01-03T15:01:03.049Z,98313.22
2023-01-03T15:03:33.574Z,98322.66
2023-01-03T15:06:01.353Z,98329.91
2023-01-03T15:08:32.043Z,98330.25
2023-01-03T15:11:08.855Z,98335.69
2023-01-03T15:13:42.202Z,98336.22
2023-01-03T15:16:29.962Z,98328.38
2023-01-03T15:19:21.037Z,98332.00
2023-01-03T15:21:48.340Z,98341.72
2023-01-03T15:24:20.227Z,98339.16
2023-01-03T15:26:48.748Z,98335.50
2023-01-03T15:29:20.587Z,98340.25
2023-01-03T15:31:53.584Z,98345.69
2023-01-03T15:34:41.604Z,98336.22
2023-01-03T15:37:15.429Z,98333.97
2023-01-03T15:39:45.991Z,98338.63
2023-01-03T15:42:44.650Z,98333.69
2023-01-03T15:45:24.941Z,98329.25
2023-01-03T15:47:55.714Z,98332.50
2023-01-03T15:50:23.011Z,98335.56
2023-01-03T15:52:49.701Z,98346.25
2023-01-03T15:55:17.097Z,98345.88
2023-01-03T15:57:50.744Z,98349.28
2023-01-03T16:00:20.887Z,98356.31
2023-01-03T16:02:47.824Z,98357.41
2023-01-03T16:05:21.609Z,98358.25
2023-01-03T16:07:49.642Z,98355.47
2023-01-03T16:10:16.380Z,98360.63
2023-01-03T16:12:43.208Z,98358.78
2023-01-03T16:15:19.448Z,98370.00
2023-01-03T16:17:46.353Z,98367.41
2023-01-03T16:20:15.968Z,98362.41
2023-01-03T16:22:57.396Z,98369.03
2023-01-03T16:25:27.097Z,98362.97
2023-01-03T16:27:53.855Z,98362.19
2023-01-03T16:30:20.588Z,98356.84
2023-01-03T16:32:47.391Z,98352.03
2023-01-03T16:35:18.354Z,98355.59
2023-01-03T16:37:45.200Z,98351.97
2023-01-03T16:40:15.402Z,98362.31
2023-01-03T16:42:42.072Z,98357.59
2023-01-03T16:45:08.915Z,98351.56
2023-01-03T16:47:36.025Z,98355.69
2023-01-03T16:50:14.852Z,98354.41
2023-01-03T16:52:46.307Z,98359.03
2023-01-03T16:55:18.134Z,98363.72
2023-01-03T16:57:50.226Z,98363.44
2023-01-03T17:00:29.736Z,98361.72
2023-01-03T17:03:00.091Z,98361.97
2023-01-03T17:05:27.633Z,98362.59
2023-01-03T17:08:01.713Z,98357.16
2023-01-03T17:10:35.013Z,98361.00
2023-01-03T17:13:10.166Z,98362.13
2023-01-03T17:15:39.133Z,98355.78
2023-01-03T17:18:05.872Z,98354.19
2023-01-03T17:20:32.666Z,98355.81
2023-01-03T17:23:00.388Z,98362.94
2023-01-03T17:25:27.348Z,98358.41
2023-01-03T17:27:56.677Z,98348.44
2023-01-03T17:30:26.478Z,98358.97
2023-01-03T17:32:55.315Z,98361.38
2023-01-03T17:35:22.238Z,98358.09
2023-01-03T17:40:45.084Z,98354.31
2023-01-03T17:43:20.824Z,98355.06
2023-01-03T17:46:08.293Z,98365.97
2023-01-03T17:48:53.811Z,98361.97
2023-01-03T17:51:21.392Z,98363.97
2023-01-03T17:53:49.770Z,98363.25
2023-01-03T17:56:18.365Z,98358.50
2023-01-03T17:58:52.150Z,98361.97
2023-01-03T18:01:22.749Z,98355.25
2023-01-03T18:03:50.188Z,98359.44
2023-01-03T18:06:21.768Z,98365.44
2023-01-03T18:08:48.843Z,98367.63
2023-01-03T18:11:18.161Z,98370.16
2023-01-03T18:13:46.273Z,98372.88
2023-01-03T18:16:21.850Z,98384.34
2023-01-03T18:18:50.731Z,98383.63
2023-01-03T18:21:21.515Z,98385.63
2023-01-03T18:24:01.695Z,98386.09
2023-01-03T18:26:33.603Z,98390.34
2023-01-03T18:29:00.823Z,98393.06
2023-01-03T18:31:27.630Z,98386.09
2023-01-03T18:33:54.556Z,98395.56
2023-01-03T18:36:30.241Z,98399.38
2023-01-03T18:39:06.592Z,98401.38
2023-01-03T18:41:34.068Z,98389.75
2023-01-03T18:44:01.087Z,98402.63
2023-01-03T18:46:28.625Z,98400.44
2023-01-03T18:48:55.658Z,98407.19
2023-01-03T18:51:25.128Z,98405.72
2023-01-03T18:53:57.322Z,98402.06
2023-01-03T18:56:32.658Z,98401.31
2023-01-03T18:59:11.475Z,98403.88
2023-01-03T19:01:38.331Z,98405.13
2023-01-03T19:04:05.509Z,98409.88
2023-01-03T19:06:33.775Z,98411.09
2023-01-03T19:09:03.478Z,98413.66
2023-01-03T19:11:36.078Z,98408.75
2023-01-03T19:14:04.126Z,98409.97
2023-01-03T19:16:35.904Z,98411.81
2023-01-03T19:19:04.142Z,98418.53
2023-01-03T19:21:36.266Z,98417.78
2023-01-03T19:24:08.203Z,98411.41
2023-01-03T19:26:38.632Z,98409.75
2023-01-03T19:29:07.490Z,98416.47
2023-01-03T19:31:44.817Z,98417.00
2023-01-03T19:34:21.085Z,98429.00
2023-01-03T19:36:52.494Z,98429.72
2023-01-03T19:39:25.826Z,98429.03
2023-01-03T19:42:19.025Z,98429.72
2023-01-03T19:44:52.748Z,98432.03
2023-01-03T19:47:21.433Z,98434.38
2023-01-03T19:49:49.799Z,98438.91
2023-01-03T19:52:17.223Z,98446.34
2023-01-03T19:54:44.513Z,98441.41
2023-01-03T19:57:22.871Z,98445.94
2023-01-03T19:59:53.466Z,98440.28
2023-01-03T20:02:32.757Z,98432.19
2023-01-03T20:05:00.163Z,98440.50
2023-01-03T20:07:27.109Z,98434.81
2023-01-03T20:09:53.953Z,98414.09
2023-01-03T20:12:28.745Z,98416.59
2023-01-03T20:15:01.317Z,98416.59
2023-01-03T20:17:34.128Z,98409.69
2023-01-03T20:20:00.945Z,98410.97
2023-01-03T20:23:03.261Z,98410.06
2023-01-03T20:25:32.063Z,98418.75
2023-01-03T20:27:59.603Z,98419.28
2023-01-03T20:30:28.628Z,98407.66
2023-01-03T20:32:55.781Z,98409.66
2023-01-03T20:36:07.549Z,98401.25
2023-01-03T20:38:12.105Z,98400.53
2023-01-03T20:40:39.250Z,98396.16
2023-01-03T20:43:14.792Z,98399.94
2023-01-03T20:45:45.567Z,98395.94
2023-01-03T20:48:16.704Z,98395.00
2023-01-03T20:50:48.128Z,98394.81
2023-01-03T20:53:16.015Z,98392.09
2023-01-03T20:55:42.591Z,98395.56
2023-01-03T20:58:13.466Z,98398.78
2023-01-03T21:00:40.287Z,98389.88
2023-01-03T21:03:07.452Z,98385.50
2023-01-03T21:05:34.431Z,98385.50
2023-01-03T21:08:19.805Z,98383.31
2023-01-03T21:10:52.792Z,98378.38
2023-01-03T21:13:22.886Z,98386.56
2023-01-03T21:15:50.008Z,98390.56
2023-01-03T21:18:16.890Z,98392.56
2023-01-03T21:20:43.941Z,98395.28
2023-01-03T21:23:20.356Z,98393.09
2023-01-03T21:25:47.310Z,98391.59
2023-01-03T21:28:13.940Z,98386.69
2023-01-03T21:30:41.034Z,98383.06
2023-01-03T21:33:11.550Z,98381.06
2023-01-03T21:35:41.062Z,98376.34
2023-01-03T21:38:09.046Z,98373.63
2023-01-03T21:40:35.666Z,98372.34
2023-01-03T21:43:05.106Z,98369.81
2023-01-03T21:45:39.285Z,98371.28
2023-01-03T21:48:11.464Z,98371.28
2023-01-03T21:50:41.572Z,98373.88
2023-01-03T21:53:23.669Z,98369.81
2023-01-03T21:55:51.866Z,98374.88
2023-01-03T21:58:26.781Z,98369.22
2023-01-03T22:01:00.209Z,98380.09
2023-01-03T22:03:50.592Z,98382.84
2023-01-03T22:06:24.368Z,98385.03
2023-01-03T22:08:56.671Z,98379.56
2023-01-03T22:11:25.024Z,98378.84
2023-01-03T22:13:56.225Z,98373.41
2023-01-03T22:16:22.927Z,98376.13
2023-01-03T22:18:49.629Z,98372.88
2023-01-03T22:21:16.386Z,98377.59
2023-01-03T22:23:47.963Z,98366.91
2023-01-03T22:26:15.101Z,98361.44
2023-01-03T22:28:54.920Z,98357.25
2023-01-03T22:31:27.512Z,98343.63
2023-01-03T22:33:55.458Z,98348.38
2023-01-03T22:36:21.958Z,98344.91
2023-01-03T22:38:48.583Z,98344.16
2023-01-03T22:41:15.890Z,98349.09
2023-01-03T22:43:42.665Z,98344.91
2023-01-03T22:46:09.956Z,98349.59
2023-01-03T22:48:36.694Z,98354.84
2023-01-03T22:51:04.358Z,98348.69
2023-01-03T22:53:33.312Z,98343.22
2023-01-03T22:56:00.151Z,98344.50
2023-01-03T22:58:26.873Z,98341.06
2023-01-03T23:00:53.500Z,98344.28
2023-01-03T23:03:20.235Z,98350.28
2023-01-03T23:05:46.795Z,98358.97
2023-01-03T23:08:13.475Z,98361.50
2023-01-03T23:10:40.052Z,98349.88
2023-01-03T23:13:06.801Z,98351.88
2023-01-03T23:15:33.347Z,98344.22
2023-01-03T23:18:00.621Z,98343.31
2023-01-03T23:20:31.484Z,98347.81
2023-01-03T23:23:02.973Z,98347.09
2023-01-03T23:25:30.945Z,98351.06
2023-01-03T23:27:57.549Z,98343.41
2023-01-03T23:30:24.246Z,98335.06
2023-01-03T23:32:50.965Z,98332.66
2023-01-03T23:35:18.570Z,98332.44
2023-01-03T23:37:47.278Z,98328.06
2023-01-03T23:40:14.066Z,98326.41
2023-01-03T23:42:40.736Z,98328.94
2023-01-03T23:45:07.568Z,98319.63
2023-01-03T23:47:34.229Z,98327.38
2023-01-03T23:50:00.755Z,98332.09
2023-01-03T23:52:27.499Z,98325.19
2023-01-03T23:55:00.071Z,98328.25
2023-01-03T23:57:29.169Z,98320.63
2023-01-03T23:59:55.698Z,98322.59
